Terminal Aerodrome Forecast
Issued by NWS Wakefield, VA

Home | Current Version | Previous Version | Text Only | Print | Product List | Glossary On
Versions: 1 2 3 4 5 6 7 8 9 10 11 12 13 14 15
000
FTUS41 KAKQ 281744
TAFORF
TAF
KORF 281744Z 2818/2918 05013KT P6SM SCT035
     FM282300 07007KT P6SM SCT040
     FM290500 06006KT P6SM BKN025
     FM291000 05007KT P6SM OVC015
     FM291400 04010KT P6SM BKN035=

USA.gov is the U.S. government's official web portal to all federal, state and local government web resources and services.